Time;durP1;ratioP1;P1;durP2;ratioP2;P2;SDS_P1;SDS_P2;PMS_P1;PMS_P2;Temp;Humidity;BMP_temperature;BMP_pressure;BME280_temperature;BME280_humidity;BME280_pressure;Samples;Min_cycle;Max_cycle;Signal;HPM_P1;HPM_P2
2022/07/11 00:02:01;;;;;;;10.18;1.95;;;;;;;;;;5096365;28;20093;-65
2022/07/11 00:04:31;;;;;;;9.07;1.63;;;;;;;;;;5096774;28;20089;-67
2022/07/11 00:06:57;;;;;;;8.90;1.70;;;;;;;;;;5096448;28;20067;-65
2022/07/11 00:09:23;;;;;;;8.50;1.40;;;;;;;;;;5085731;28;20032;-65
2022/07/11 00:11:49;;;;;;;7.15;1.50;;;;;;;;;;5075789;28;20542;-65
2022/07/11 00:14:15;;;;;;;6.50;1.20;;;;;;;;;;5075905;28;20052;-66
2022/07/11 00:16:41;;;;;;;7.82;1.50;;;;;;;;;;5076209;28;20365;-67
2022/07/11 00:19:07;;;;;;;5.28;1.23;;;;;;;;;;5075856;28;20025;-67
2022/07/11 00:21:36;;;;;;;5.95;1.63;;;;;;;;;;5075741;28;20016;-65
2022/07/11 00:24:03;;;;;;;10.00;1.75;;;;;;;;;;5075902;28;20066;-67
2022/07/11 00:26:28;;;;;;;8.05;1.45;;;;;;;;;;5075509;28;20112;-66
2022/07/11 00:28:54;;;;;;;4.82;1.75;;;;;;;;;;5075770;28;20104;-65
2022/07/11 00:31:20;;;;;;;6.93;1.70;;;;;;;;;;5075472;28;20017;-65
2022/07/11 00:33:45;;;;;;;5.85;1.30;;;;;;;;;;5075598;28;20017;-65
2022/07/11 00:36:11;;;;;;;6.55;1.65;;;;;;;;;;5075662;28;20029;-66
2022/07/11 00:38:37;;;;;;;4.32;1.40;;;;;;;;;;5075397;28;20107;-63
2022/07/11 00:41:03;;;;;;;6.55;1.45;;;;;;;;;;5075097;28;20086;-65
2022/07/11 00:43:39;;;;;;;9.18;1.52;;;;;;;;;;5074962;28;20056;-67
2022/07/11 00:46:06;;;;;;;12.30;2.00;;;;;;;;;;5075309;28;20036;-62
2022/07/11 00:48:32;;;;;;;8.48;2.08;;;;;;;;;;5075376;28;20051;-66
2022/07/11 00:50:58;;;;;;;9.52;1.63;;;;;;;;;;5074558;28;20476;-65
2022/07/11 00:53:24;;;;;;;5.85;1.38;;;;;;;;;;5075147;28;20385;-66
2022/07/11 00:55:53;;;;;;;9.43;1.73;;;;;;;;;;5075006;28;20110;-66
2022/07/11 00:58:21;;;;;;;6.88;1.55;;;;;;;;;;5075175;28;20108;-65
2022/07/11 01:00:47;;;;;;;9.98;1.42;;;;;;;;;;5074958;28;20036;-66
2022/07/11 01:03:13;;;;;;;7.68;1.60;;;;;;;;;;5075089;28;20066;-66
2022/07/11 01:05:39;;;;;;;6.13;1.65;;;;;;;;;;5074970;28;20028;-65
2022/07/11 01:08:04;;;;;;;8.10;1.88;;;;;;;;;;5074966;28;20032;-65
2022/07/11 01:10:31;;;;;;;7.38;1.80;;;;;;;;;;5074979;28;20035;-66
2022/07/11 01:12:57;;;;;;;8.95;1.92;;;;;;;;;;5074877;28;20017;-65
2022/07/11 01:15:23;;;;;;;7.60;1.60;;;;;;;;;;5074718;28;20031;-66
2022/07/11 01:17:49;;;;;;;8.07;1.85;;;;;;;;;;5074829;28;20385;-65
2022/07/11 01:20:15;;;;;;;8.70;1.70;;;;;;;;;;5074714;28;20032;-64
2022/07/11 01:22:44;;;;;;;12.80;2.08;;;;;;;;;;5074760;28;20031;-65
2022/07/11 01:25:10;;;;;;;9.95;1.65;;;;;;;;;;5073663;28;20085;-63
2022/07/11 01:27:36;;;;;;;9.25;1.90;;;;;;;;;;5074624;28;20044;-67
2022/07/11 01:30:04;;;;;;;12.32;2.13;;;;;;;;;;5074417;28;20501;-66
2022/07/11 01:32:30;;;;;;;7.40;1.92;;;;;;;;;;5074344;28;20180;-67
2022/07/11 01:34:55;;;;;;;7.50;1.88;;;;;;;;;;5074417;28;20116;-65
2022/07/11 01:37:21;;;;;;;5.25;1.73;;;;;;;;;;5074267;28;20035;-66
2022/07/11 01:39:46;;;;;;;11.57;2.13;;;;;;;;;;5074057;28;20029;-66
2022/07/11 01:42:12;;;;;;;8.77;2.08;;;;;;;;;;5074207;28;20032;-66
2022/07/11 01:44:37;;;;;;;12.10;1.70;;;;;;;;;;5073818;28;20049;-66
2022/07/11 01:47:03;;;;;;;9.88;2.00;;;;;;;;;;5056279;28;20393;-66
2022/07/11 01:49:29;;;;;;;5.00;1.50;;;;;;;;;;5074154;28;20470;-66
2022/07/11 01:51:56;;;;;;;7.30;1.63;;;;;;;;;;5073983;28;20071;-67
2022/07/11 01:54:22;;;;;;;9.68;2.13;;;;;;;;;;5073915;28;20025;-67
2022/07/11 01:56:47;;;;;;;9.82;2.20;;;;;;;;;;5074016;28;20116;-66
2022/07/11 01:59:13;;;;;;;8.52;2.67;;;;;;;;;;5073874;28;20032;-66
2022/07/11 02:01:39;;;;;;;6.50;1.65;;;;;;;;;;5073105;28;20025;-66
2022/07/11 02:04:05;;;;;;;11.95;1.90;;;;;;;;;;5073606;28;20029;-66
2022/07/11 02:06:31;;;;;;;7.50;1.80;;;;;;;;;;5073853;28;20373;-66
2022/07/11 02:08:57;;;;;;;11.95;1.95;;;;;;;;;;5073727;28;20095;-66
2022/07/11 02:11:23;;;;;;;11.98;1.88;;;;;;;;;;5073534;28;20177;-66
2022/07/11 02:13:49;;;;;;;7.88;1.98;;;;;;;;;;5073763;28;20389;-66
2022/07/11 02:16:15;;;;;;;10.10;2.00;;;;;;;;;;5073671;28;20020;-65
2022/07/11 02:18:41;;;;;;;11.02;2.10;;;;;;;;;;5073682;28;20055;-66
2022/07/11 02:21:06;;;;;;;9.07;2.00;;;;;;;;;;5073495;28;20040;-65
2022/07/11 02:23:32;;;;;;;10.43;3.15;;;;;;;;;;5073156;28;20065;-67
2022/07/11 02:25:57;;;;;;;10.85;1.90;;;;;;;;;;5073511;28;20016;-66
2022/07/11 02:28:23;;;;;;;10.63;2.03;;;;;;;;;;5073473;28;20024;-67
2022/07/11 02:30:48;;;;;;;6.75;2.08;;;;;;;;;;5073301;28;20031;-67
2022/07/11 02:33:15;;;;;;;12.02;1.98;;;;;;;;;;5085205;28;20484;-67
2022/07/11 02:35:48;;;;;;;5.47;2.03;;;;;;;;;;5093554;28;20086;-66
2022/07/11 02:38:14;;;;;;;8.95;1.70;;;;;;;;;;5093319;28;20554;-67
2022/07/11 02:40:40;;;;;;;11.68;2.00;;;;;;;;;;5093127;28;20050;-66
2022/07/11 02:43:06;;;;;;;11.05;2.38;;;;;;;;;;5093320;28;20024;-67
2022/07/11 02:45:32;;;;;;;7.90;2.08;;;;;;;;;;5093176;28;20123;-66
2022/07/11 02:47:57;;;;;;;6.03;1.88;;;;;;;;;;5093386;28;20024;-66
2022/07/11 02:50:23;;;;;;;10.77;2.17;;;;;;;;;;5093318;28;20028;-66
2022/07/11 02:52:49;;;;;;;8.15;2.22;;;;;;;;;;5092962;28;20456;-66
2022/07/11 02:55:15;;;;;;;10.93;2.42;;;;;;;;;;5074983;28;20032;-67
2022/07/11 02:57:41;;;;;;;10.05;2.10;;;;;;;;;;5093196;28;20122;-66
2022/07/11 03:00:11;;;;;;;9.13;2.13;;;;;;;;;;5093179;28;20151;-66
2022/07/11 03:02:37;;;;;;;6.97;1.65;;;;;;;;;;5093272;28;20039;-64
2022/07/11 03:05:03;;;;;;;8.35;2.30;;;;;;;;;;5093093;28;20028;-65
2022/07/11 03:07:29;;;;;;;7.68;2.05;;;;;;;;;;5092807;28;20039;-66
2022/07/11 03:09:55;;;;;;;10.18;2.00;;;;;;;;;;5074826;28;20496;-66
2022/07/11 03:12:21;;;;;;;8.48;2.20;;;;;;;;;;5092922;28;20076;-63
2022/07/11 03:14:47;;;;;;;7.93;1.98;;;;;;;;;;5092633;28;20024;-66
2022/07/11 03:17:12;;;;;;;6.60;2.00;;;;;;;;;;5092925;28;20487;-66
2022/07/11 03:19:38;;;;;;;9.02;2.30;;;;;;;;;;5092775;28;20491;-65
2022/07/11 03:22:04;;;;;;;8.40;1.55;;;;;;;;;;5092559;28;20031;-66
2022/07/11 03:24:30;;;;;;;7.57;2.05;;;;;;;;;;5092934;28;20107;-67
2022/07/11 03:26:56;;;;;;;12.30;1.80;;;;;;;;;;5092798;28;20099;-67
2022/07/11 03:29:21;;;;;;;8.30;2.03;;;;;;;;;;5092637;28;20032;-66
2022/07/11 03:31:47;;;;;;;9.18;2.05;;;;;;;;;;5092829;28;20052;-66
2022/07/11 03:34:13;;;;;;;6.65;2.13;;;;;;;;;;5092859;28;20032;-67
2022/07/11 03:36:38;;;;;;;9.48;1.85;;;;;;;;;;5092612;28;20024;-67
2022/07/11 03:39:04;;;;;;;7.88;1.95;;;;;;;;;;5092750;28;20534;-66
2022/07/11 03:41:29;;;;;;;8.77;1.90;;;;;;;;;;5092189;28;20036;-66
2022/07/11 03:43:56;;;;;;;7.70;2.10;;;;;;;;;;5092313;28;20040;-66
2022/07/11 03:46:22;;;;;;;9.98;1.85;;;;;;;;;;5092639;28;20424;-67
2022/07/11 03:48:47;;;;;;;10.82;2.70;;;;;;;;;;5092366;28;20023;-66
2022/07/11 03:51:13;;;;;;;7.18;2.15;;;;;;;;;;5092583;28;20028;-65
2022/07/11 03:53:39;;;;;;;11.95;2.40;;;;;;;;;;5092774;28;20024;-66
2022/07/11 03:56:04;;;;;;;10.10;2.40;;;;;;;;;;5074428;28;20031;-63
2022/07/11 03:58:30;;;;;;;10.63;2.15;;;;;;;;;;5092587;28;20020;-66
2022/07/11 04:00:56;;;;;;;18.38;2.80;;;;;;;;;;5092476;28;20072;-66
2022/07/11 04:03:21;;;;;;;11.80;2.00;;;;;;;;;;5092250;28;20073;-66
2022/07/11 04:05:47;;;;;;;9.18;2.20;;;;;;;;;;5092545;28;20032;-66
2022/07/11 04:08:12;;;;;;;12.63;2.10;;;;;;;;;;5091335;28;20028;-66
2022/07/11 04:10:38;;;;;;;6.13;2.28;;;;;;;;;;5072158;28;20027;-67
2022/07/11 04:13:03;;;;;;;13.63;2.60;;;;;;;;;;5072240;28;20489;-66
2022/07/11 04:15:29;;;;;;;10.68;2.28;;;;;;;;;;5072130;28;20032;-62
2022/07/11 04:17:55;;;;;;;9.57;2.13;;;;;;;;;;5071954;28;20369;-65
2022/07/11 04:20:20;;;;;;;10.07;1.98;;;;;;;;;;5072060;28;20035;-67
2022/07/11 04:22:46;;;;;;;13.77;2.67;;;;;;;;;;5071993;28;20108;-66
2022/07/11 04:25:11;;;;;;;9.77;2.42;;;;;;;;;;5072634;28;20102;-66
2022/07/11 04:27:37;;;;;;;6.30;2.05;;;;;;;;;;5075686;28;20103;-66
2022/07/11 04:30:03;;;;;;;8.40;1.92;;;;;;;;;;5075392;28;20404;-66
2022/07/11 04:32:29;;;;;;;7.10;1.85;;;;;;;;;;5075532;28;20020;-65
2022/07/11 04:34:54;;;;;;;12.75;2.03;;;;;;;;;;5075536;28;20047;-66
2022/07/11 04:37:20;;;;;;;8.90;3.70;;;;;;;;;;5075301;28;20037;-65
2022/07/11 04:39:46;;;;;;;10.13;2.30;;;;;;;;;;5075437;28;20028;-67
2022/07/11 04:42:12;;;;;;;10.93;2.30;;;;;;;;;;5075429;28;20055;-65
2022/07/11 04:44:38;;;;;;;6.28;1.88;;;;;;;;;;5075132;28;20480;-66
2022/07/11 04:47:04;;;;;;;7.78;1.90;;;;;;;;;;5075155;28;20031;-66
2022/07/11 04:49:29;;;;;;;9.43;2.22;;;;;;;;;;5057225;28;20124;-66
2022/07/11 04:51:56;;;;;;;8.30;1.92;;;;;;;;;;5075311;28;20082;-66
2022/07/11 04:54:22;;;;;;;12.63;2.53;;;;;;;;;;5075118;28;20323;-65
2022/07/11 04:56:48;;;;;;;8.88;2.25;;;;;;;;;;5075083;28;20461;-65
2022/07/11 04:59:13;;;;;;;13.40;2.50;;;;;;;;;;5075121;28;20035;-65
2022/07/11 05:01:39;;;;;;;6.45;1.90;;;;;;;;;;5074847;28;20051;-66
2022/07/11 05:04:04;;;;;;;7.15;2.10;;;;;;;;;;5075102;28;20482;-66
2022/07/11 05:06:30;;;;;;;9.52;2.35;;;;;;;;;;5074973;28;20028;-66
2022/07/11 05:08:56;;;;;;;7.07;1.98;;;;;;;;;;5074980;28;20063;-66
2022/07/11 05:11:21;;;;;;;6.40;1.67;;;;;;;;;;5074952;28;20039;-66
2022/07/11 05:13:47;;;;;;;11.27;2.08;;;;;;;;;;5074792;28;20031;-65
2022/07/11 05:16:12;;;;;;;12.43;1.95;;;;;;;;;;5074577;28;20059;-62
2022/07/11 05:18:39;;;;;;;7.78;1.80;;;;;;;;;;5074860;28;20055;-65
2022/07/11 05:21:05;;;;;;;6.70;1.55;;;;;;;;;;5074693;28;20032;-66
2022/07/11 05:23:30;;;;;;;7.38;1.80;;;;;;;;;;5074597;28;20029;-66
2022/07/11 05:25:56;;;;;;;7.90;1.50;;;;;;;;;;5074677;28;20029;-66
2022/07/11 05:28:22;;;;;;;7.15;1.67;;;;;;;;;;5074407;28;20094;-63
2022/07/11 05:30:47;;;;;;;11.82;2.25;;;;;;;;;;5074262;28;20028;-65
2022/07/11 05:33:13;;;;;;;7.18;1.50;;;;;;;;;;5074515;28;20025;-64
2022/07/11 05:35:38;;;;;;;4.88;1.42;;;;;;;;;;5074484;28;20032;-66
2022/07/11 05:38:04;;;;;;;5.25;1.58;;;;;;;;;;5074255;28;20024;-64
2022/07/11 05:40:29;;;;;;;9.07;1.80;;;;;;;;;;5074271;28;20051;-65
2022/07/11 05:42:55;;;;;;;8.45;1.85;;;;;;;;;;5074123;28;20447;-66
2022/07/11 05:45:21;;;;;;;7.90;1.73;;;;;;;;;;5073853;28;20032;-66
2022/07/11 05:47:46;;;;;;;8.45;1.95;;;;;;;;;;5074189;28;20016;-67
2022/07/11 05:50:12;;;;;;;9.73;1.73;;;;;;;;;;5074008;28;20494;-65
2022/07/11 05:52:37;;;;;;;5.47;1.50;;;;;;;;;;5073947;28;20016;-66
2022/07/11 05:55:03;;;;;;;8.40;1.65;;;;;;;;;;5074072;28;20469;-66
2022/07/11 05:57:29;;;;;;;7.88;1.50;;;;;;;;;;5074001;28;20024;-65
2022/07/11 05:59:54;;;;;;;2.95;1.27;;;;;;;;;;5073749;28;20373;-66
2022/07/11 06:02:20;;;;;;;9.95;1.77;;;;;;;;;;5073948;28;20020;-66
2022/07/11 06:04:45;;;;;;;5.60;1.20;;;;;;;;;;5073897;28;20046;-67
2022/07/11 06:07:11;;;;;;;7.25;1.30;;;;;;;;;;5073848;28;20024;-64
2022/07/11 06:09:37;;;;;;;6.50;1.75;;;;;;;;;;5073783;28;20107;-66
2022/07/11 06:12:03;;;;;;;7.43;1.35;;;;;;;;;;5073630;28;20078;-64
2022/07/11 06:14:29;;;;;;;4.57;1.30;;;;;;;;;;5073568;28;20033;-66
2022/07/11 06:16:54;;;;;;;5.80;1.55;;;;;;;;;;5073582;28;20017;-66
2022/07/11 06:19:20;;;;;;;5.78;1.23;;;;;;;;;;5073422;28;20048;-67
2022/07/11 06:21:45;;;;;;;5.55;1.20;;;;;;;;;;5073608;28;20063;-65
2022/07/11 06:24:11;;;;;;;4.13;1.08;;;;;;;;;;5073432;28;20443;-67
2022/07/11 06:26:37;;;;;;;6.57;1.40;;;;;;;;;;5073443;28;20036;-66
2022/07/11 06:29:03;;;;;;;6.95;1.20;;;;;;;;;;5073183;28;20021;-65
2022/07/11 06:31:28;;;;;;;4.45;1.15;;;;;;;;;;5073038;28;20385;-66
2022/07/11 06:33:54;;;;;;;6.35;0.93;;;;;;;;;;5073359;28;20020;-67
2022/07/11 06:36:26;;;;;;;4.30;0.90;;;;;;;;;;5073243;28;20024;-67
2022/07/11 06:38:53;;;;;;;3.65;1.25;;;;;;;;;;5073154;28;20032;-67
2022/07/11 06:41:19;;;;;;;5.95;1.00;;;;;;;;;;5073016;28;20107;-65
2022/07/11 06:43:47;;;;;;;4.32;1.20;;;;;;;;;;5072409;28;20219;-66
2022/07/11 06:46:14;;;;;;;4.75;1.10;;;;;;;;;;5073062;28;20029;-67
2022/07/11 06:48:40;;;;;;;6.13;1.23;;;;;;;;;;5054366;28;20548;-66
2022/07/11 06:51:06;;;;;;;3.97;1.10;;;;;;;;;;5066874;28;20124;-66
2022/07/11 06:53:31;;;;;;;5.35;1.17;;;;;;;;;;5073512;28;20043;-66
2022/07/11 06:55:57;;;;;;;10.18;1.23;;;;;;;;;;5071600;28;20024;-66
2022/07/11 06:58:34;;;;;;;4.28;1.10;;;;;;;;;;5080105;28;20103;-67
2022/07/11 07:01:02;;;;;;;8.00;1.08;;;;;;;;;;5086350;28;20036;-65
2022/07/11 07:03:29;;;;;;;2.63;0.80;;;;;;;;;;5081916;28;20063;-66
2022/07/11 07:05:56;;;;;;;12.48;1.35;;;;;;;;;;5078372;28;20031;-65
2022/07/11 07:08:24;;;;;;;4.15;1.10;;;;;;;;;;5061427;28;20413;-67
2022/07/11 07:10:49;;;;;;;2.75;1.00;;;;;;;;;;5071827;28;20470;-66
2022/07/11 07:13:15;;;;;;;2.75;1.00;;;;;;;;;;5083812;28;20020;-66
2022/07/11 07:15:40;;;;;;;3.42;1.00;;;;;;;;;;5084509;28;20047;-66
2022/07/11 07:18:06;;;;;;;3.50;0.88;;;;;;;;;;5078304;28;20016;-66
2022/07/11 07:20:31;;;;;;;6.13;1.00;;;;;;;;;;5081394;28;20515;-65
2022/07/11 07:22:57;;;;;;;8.05;1.10;;;;;;;;;;5080832;28;20377;-66
2022/07/11 07:25:23;;;;;;;6.15;1.27;;;;;;;;;;5079569;28;20016;-66
2022/07/11 07:27:49;;;;;;;4.47;1.13;;;;;;;;;;5079597;28;20020;-66
2022/07/11 07:30:14;;;;;;;4.40;1.10;;;;;;;;;;5076409;28;20012;-66
2022/07/11 07:32:40;;;;;;;3.47;0.88;;;;;;;;;;5079310;28;20024;-65
2022/07/11 07:35:06;;;;;;;4.40;1.00;;;;;;;;;;5080738;28;20081;-66
2022/07/11 07:37:32;;;;;;;5.63;0.90;;;;;;;;;;5083214;28;20089;-66
2022/07/11 07:39:57;;;;;;;1.75;0.80;;;;;;;;;;5083606;28;20438;-67
2022/07/11 07:42:23;;;;;;;4.03;1.00;;;;;;;;;;5082004;28;20019;-64
2022/07/11 07:44:49;;;;;;;3.78;0.90;;;;;;;;;;5078721;28;20135;-66
2022/07/11 07:47:15;;;;;;;6.07;1.20;;;;;;;;;;5064124;28;20116;-67
2022/07/11 07:49:40;;;;;;;3.08;0.70;;;;;;;;;;5061334;28;20536;-64
2022/07/11 07:52:06;;;;;;;1.48;0.73;;;;;;;;;;5082109;28;20031;-67
2022/07/11 07:54:31;;;;;;;3.70;0.80;;;;;;;;;;5070733;28;20112;-66
2022/07/11 07:56:57;;;;;;;7.47;1.00;;;;;;;;;;5076114;28;20021;-66
2022/07/11 07:59:24;;;;;;;2.63;0.90;;;;;;;;;;5081425;28;20030;-68
2022/07/11 08:01:51;;;;;;;2.85;0.90;;;;;;;;;;5091136;28;20461;-67
2022/07/11 08:04:17;;;;;;;1.67;0.65;;;;;;;;;;5096158;28;20043;-62
2022/07/11 08:06:42;;;;;;;2.67;0.82;;;;;;;;;;5096152;28;20024;-65
2022/07/11 08:09:08;;;;;;;3.53;1.02;;;;;;;;;;5087891;28;20074;-65
2022/07/11 08:11:35;;;;;;;1.77;0.80;;;;;;;;;;5075424;28;20017;-65
2022/07/11 08:14:02;;;;;;;1.90;0.55;;;;;;;;;;5075683;28;20021;-67
2022/07/11 08:16:29;;;;;;;1.50;0.70;;;;;;;;;;5075821;28;20043;-66
2022/07/11 08:18:55;;;;;;;4.25;0.80;;;;;;;;;;5057600;28;20435;-66
2022/07/11 08:21:21;;;;;;;2.80;0.80;;;;;;;;;;5075445;28;20121;-66
2022/07/11 08:23:47;;;;;;;1.33;0.60;;;;;;;;;;5075804;28;20032;-65
2022/07/11 08:26:12;;;;;;;1.63;0.77;;;;;;;;;;5075397;28;20070;-66
2022/07/11 08:28:38;;;;;;;3.63;1.00;;;;;;;;;;5075614;28;20021;-66
2022/07/11 08:31:04;;;;;;;3.25;0.90;;;;;;;;;;5075659;28;20456;-66
2022/07/11 08:33:29;;;;;;;3.35;1.00;;;;;;;;;;5075517;28;20485;-64
2022/07/11 08:35:55;;;;;;;4.30;1.00;;;;;;;;;;5075578;28;20021;-66
2022/07/11 08:38:20;;;;;;;4.82;0.90;;;;;;;;;;5075586;28;20487;-65
2022/07/11 08:40:50;;;;;;;4.22;1.20;;;;;;;;;;5075111;28;20029;-66
2022/07/11 08:43:17;;;;;;;4.47;1.10;;;;;;;;;;5074962;28;20095;-67
2022/07/11 08:45:44;;;;;;;5.55;0.80;;;;;;;;;;5075220;28;20551;-64
2022/07/11 08:48:10;;;;;;;2.25;0.80;;;;;;;;;;5075184;28;20459;-65
2022/07/11 08:50:36;;;;;;;2.35;0.60;;;;;;;;;;5075028;28;20048;-66
2022/07/11 08:53:04;;;;;;;3.22;0.63;;;;;;;;;;5075486;28;20408;-65
2022/07/11 08:55:30;;;;;;;2.10;0.68;;;;;;;;;;5074795;28;20037;-66
2022/07/11 08:57:56;;;;;;;4.13;0.80;;;;;;;;;;5075145;28;20020;-66
2022/07/11 09:00:22;;;;;;;5.40;0.80;;;;;;;;;;5075068;28;20465;-67
2022/07/11 09:02:48;;;;;;;2.55;0.77;;;;;;;;;;5075098;28;20069;-65
2022/07/11 09:05:14;;;;;;;3.38;0.70;;;;;;;;;;5075035;28;20028;-66
2022/07/11 09:07:47;;;;;;;8.85;1.55;;;;;;;;;;5074945;28;20376;-67
2022/07/11 09:10:13;;;;;;;9.18;1.52;;;;;;;;;;5074854;28;20040;-66
2022/07/11 09:13:00;;;;;;;2.00;0.70;;;;;;;;;;5074334;28;20032;-66
2022/07/11 09:15:32;;;;;;;5.35;1.08;;;;;;;;;;5064265;28;20040;-66
2022/07/11 09:17:58;;;;;;;3.15;0.90;;;;;;;;;;5074452;28;20100;-66
2022/07/11 09:20:23;;;;;;;1.27;0.68;;;;;;;;;;5074204;28;20544;-66
2022/07/11 09:25:42;;;;;;;2.38;0.90;;;;;;;;;;5074624;28;20098;-66
2022/07/11 09:28:07;;;;;;;2.95;0.80;;;;;;;;;;5074482;28;20062;-65
2022/07/11 09:30:42;;;;;;;2.40;0.50;;;;;;;;;;5074207;28;20020;-65
2022/07/11 09:33:10;;;;;;;1.13;0.50;;;;;;;;;;5074136;28;20028;-66
2022/07/11 09:35:46;;;;;;;2.05;0.45;;;;;;;;;;5073823;28;20370;-65
2022/07/11 09:38:13;;;;;;;2.05;0.50;;;;;;;;;;5073205;28;20039;-66
2022/07/11 09:40:43;;;;;;;4.15;0.60;;;;;;;;;;5073672;28;20027;-66
2022/07/11 09:43:08;;;;;;;4.95;0.70;;;;;;;;;;5074130;28;20477;-64
2022/07/11 09:45:35;;;;;;;3.55;0.98;;;;;;;;;;5074068;28;20071;-66
2022/07/11 09:48:12;;;;;;;9.13;1.48;;;;;;;;;;5074052;28;20078;-66
2022/07/11 09:50:41;;;;;;;1.85;0.85;;;;;;;;;;5074242;28;20024;-65
2022/07/11 09:53:09;;;;;;;1.08;0.60;;;;;;;;;;5073730;28;20033;-66
2022/07/11 09:55:37;;;;;;;4.65;1.40;;;;;;;;;;5073957;28;20028;-66
2022/07/11 09:58:07;;;;;;;2.05;1.83;;;;;;;;;;5074086;28;20091;-66
2022/07/11 10:00:33;;;;;;;;;;;;;;;;;;5074083;28;20035;-66
2022/07/11 10:03:00;;;;;;;1.67;0.90;;;;;;;;;;5073788;28;19912;-66
2022/07/11 10:05:26;;;;;;;2.92;0.90;;;;;;;;;;5073123;28;20073;-64
2022/07/11 10:07:52;;;;;;;1.92;0.80;;;;;;;;;;5073512;28;20021;-66
2022/07/11 10:10:17;;;;;;;3.50;0.77;;;;;;;;;;5073604;28;20385;-66
2022/07/11 10:12:46;;;;;;;1.27;0.80;;;;;;;;;;5073686;28;20025;-66
2022/07/11 10:15:14;;;;;;;2.30;0.70;;;;;;;;;;5073664;28;20048;-66
2022/07/11 10:17:48;;;;;;;1.20;0.52;;;;;;;;;;5073703;28;20358;-67
2022/07/11 10:20:31;;;;;;;4.40;0.68;;;;;;;;;;5073552;28;20032;-66
2022/07/11 10:23:05;;;;;;;1.73;0.70;;;;;;;;;;5072886;28;20025;-67
2022/07/11 10:26:12;;;;;;;2.92;0.60;;;;;;;;;;5055979;28;20028;-67
2022/07/11 10:28:48;;;;;;;1.35;0.85;;;;;;;;;;5073476;28;20028;-67
2022/07/11 10:31:19;;;;;;;1.23;0.60;;;;;;;;;;5073344;28;20025;-66
2022/07/11 10:34:07;;;;;;;2.70;1.10;;;;;;;;;;5072975;28;20081;-66
2022/07/11 10:36:40;;;;;;;2.35;0.90;;;;;;;;;;5072900;28;20428;-66
2022/07/11 10:39:30;;;;;;;2.03;0.50;;;;;;;;;;5073252;28;20025;-66
2022/07/11 10:42:00;;;;;;;3.55;0.40;;;;;;;;;;5073268;28;20032;-66
2022/07/11 10:44:28;;;;;;;2.47;0.60;;;;;;;;;;5072027;28;20040;-66
2022/07/11 10:46:54;;;;;;;2.58;0.82;;;;;;;;;;5073135;28;20031;-67
2022/07/11 10:49:34;;;;;;;5.80;0.80;;;;;;;;;;5072777;28;20374;-66
2022/07/11 10:52:08;;;;;;;2.45;1.20;;;;;;;;;;5073095;28;20032;-66
2022/07/11 10:54:42;;;;;;;0.73;0.50;;;;;;;;;;5072954;28;20028;-67
2022/07/11 10:57:17;;;;;;;0.93;0.60;;;;;;;;;;5073114;28;20047;-66
2022/07/11 10:59:59;;;;;;;0.70;0.43;;;;;;;;;;5072814;28;20033;-66
2022/07/11 11:02:26;;;;;;;0.93;0.43;;;;;;;;;;5072817;28;20060;-66
2022/07/11 11:05:00;;;;;;;0.47;0.47;;;;;;;;;;5072796;28;20382;-67
2022/07/11 11:07:35;;;;;;;2.60;1.00;;;;;;;;;;5072699;28;20450;-66
2022/07/11 11:10:04;;;;;;;0.88;0.77;;;;;;;;;;5054899;28;20389;-67
2022/07/11 11:13:10;;;;;;;2.05;0.80;;;;;;;;;;5073244;28;20033;-65
2022/07/11 11:15:54;;;;;;;4.40;0.90;;;;;;;;;;5072619;28;20398;-66
2022/07/11 11:18:25;;;;;;;6.10;0.80;;;;;;;;;;5072527;28;20024;-66
2022/07/11 11:20:59;;;;;;;2.05;0.88;;;;;;;;;;5072468;28;20037;-66
2022/07/11 11:23:27;;;;;;;1.85;0.80;;;;;;;;;;5072486;28;20115;-67
2022/07/11 11:25:53;;;;;;;1.58;0.70;;;;;;;;;;5072681;28;20103;-67
2022/07/11 11:28:22;;;;;;;2.10;0.70;;;;;;;;;;5072395;28;20104;-66
2022/07/11 11:30:59;;;;;;;2.20;0.50;;;;;;;;;;5071868;28;20480;-66
2022/07/11 11:33:30;;;;;;;1.30;0.73;;;;;;;;;;5054309;28;20025;-66
2022/07/11 11:36:23;;;;;;;2.80;0.95;;;;;;;;;;5076214;28;20100;-66
2022/07/11 11:38:48;;;;;;;2.13;0.70;;;;;;;;;;5073908;28;20439;-67
2022/07/11 11:41:27;;;;;;;0.90;0.60;;;;;;;;;;5076248;28;20103;-67
2022/07/11 11:43:55;;;;;;;1.75;0.90;;;;;;;;;;5076346;28;20044;-67
2022/07/11 11:46:25;;;;;;;0.65;0.60;;;;;;;;;;5076534;28;20033;-65
2022/07/11 11:48:55;;;;;;;1.23;0.70;;;;;;;;;;5076276;28;20935;-67
2022/07/11 11:51:21;;;;;;;5.07;0.88;;;;;;;;;;5076349;28;20393;-66
2022/07/11 11:53:50;;;;;;;0.90;0.70;;;;;;;;;;5076202;28;20379;-67
2022/07/11 11:56:17;;;;;;;3.00;0.70;;;;;;;;;;5076405;28;20050;-66
2022/07/11 11:58:44;;;;;;;0.68;0.45;;;;;;;;;;5076203;28;20109;-66
2022/07/11 12:01:11;;;;;;;1.88;0.52;;;;;;;;;;5076189;28;20032;-68
2022/07/11 12:03:50;;;;;;;1.75;0.40;;;;;;;;;;5075789;28;20039;-67
2022/07/11 12:06:17;;;;;;;1.20;0.60;;;;;;;;;;5076229;28;20024;-65
2022/07/11 12:08:42;;;;;;;2.95;0.70;;;;;;;;;;5076025;28;20446;-66
2022/07/11 12:11:13;;;;;;;2.00;0.52;;;;;;;;;;5076084;28;20095;-66
2022/07/11 12:13:40;;;;;;;2.60;0.50;;;;;;;;;;5075295;28;20366;-67
2022/07/11 12:19:02;;;;;;;2.67;0.50;;;;;;;;;;5076333;28;20121;-66
2022/07/11 12:21:29;;;;;;;0.98;0.57;;;;;;;;;;5075623;28;20028;-66
2022/07/11 12:24:00;;;;;;;1.85;0.70;;;;;;;;;;5075876;28;20024;-66
2022/07/11 12:26:28;;;;;;;1.88;0.60;;;;;;;;;;5075660;28;20097;-66
2022/07/11 12:29:11;;;;;;;1.67;0.60;;;;;;;;;;5075795;28;20091;-65
2022/07/11 12:31:59;;;;;;;1.63;0.50;;;;;;;;;;5075392;28;20043;-66
2022/07/11 12:34:31;;;;;;;1.35;0.55;;;;;;;;;;5075616;28;20115;-67
2022/07/11 12:37:12;;;;;;;1.02;0.50;;;;;;;;;;5075432;28;20036;-66
2022/07/11 12:39:46;;;;;;;1.15;0.50;;;;;;;;;;5075023;28;20039;-66
2022/07/11 12:42:27;;;;;;;0.85;0.50;;;;;;;;;;5075506;28;20066;-66
2022/07/11 12:44:58;;;;;;;3.10;0.40;;;;;;;;;;5075109;28;20068;-66
2022/07/11 12:47:26;;;;;;;0.65;0.50;;;;;;;;;;5074205;28;20029;-66
2022/07/11 12:49:52;;;;;;;1.95;0.63;;;;;;;;;;5075207;28;20033;-66
2022/07/11 12:52:18;;;;;;;1.05;0.55;;;;;;;;;;5075349;28;20380;-66
2022/07/11 12:54:43;;;;;;;2.90;0.60;;;;;;;;;;5075077;28;20028;-66
2022/07/11 12:57:13;;;;;;;1.48;0.50;;;;;;;;;;5075137;28;20346;-63
2022/07/11 12:59:40;;;;;;;3.72;0.63;;;;;;;;;;5074968;28;20428;-65
2022/07/11 13:02:08;;;;;;;4.10;1.00;;;;;;;;;;5074569;28;20036;-67
2022/07/11 13:04:39;;;;;;;1.10;0.60;;;;;;;;;;5074986;28;20027;-66
2022/07/11 13:10:16;;;;;;;1.60;0.57;;;;;;;;;;5074983;28;20370;-66
2022/07/11 13:12:43;;;;;;;1.58;0.60;;;;;;;;;;5074967;28;20107;-67
2022/07/11 13:15:10;;;;;;;1.38;0.50;;;;;;;;;;5056711;28;20027;-67
2022/07/11 13:17:50;;;;;;;2.30;0.60;;;;;;;;;;5074693;28;20073;-67
2022/07/11 13:20:24;;;;;;;3.28;0.90;;;;;;;;;;5074529;28;20123;-66
2022/07/11 13:22:50;;;;;;;1.42;0.60;;;;;;;;;;5074788;28;20032;-67
2022/07/11 13:25:18;;;;;;;0.77;0.50;;;;;;;;;;5074359;28;20024;-65
2022/07/11 13:27:45;;;;;;;3.75;0.70;;;;;;;;;;5074258;28;20028;-64
2022/07/11 13:30:16;;;;;;;2.20;0.60;;;;;;;;;;5074277;28;20082;-64
2022/07/11 13:32:46;;;;;;;2.00;0.60;;;;;;;;;;5074157;28;20196;-65
2022/07/11 13:35:13;;;;;;;1.50;0.70;;;;;;;;;;5074432;28;20031;-66
2022/07/11 13:37:40;;;;;;;0.90;0.50;;;;;;;;;;5074635;28;20074;-65
2022/07/11 13:40:11;;;;;;;1.58;0.60;;;;;;;;;;5074167;28;20021;-65
2022/07/11 13:42:38;;;;;;;2.33;0.50;;;;;;;;;;5074479;28;20556;-66
2022/07/11 13:45:04;;;;;;;1.92;0.73;;;;;;;;;;5073710;28;20132;-66
2022/07/11 13:47:31;;;;;;;0.57;0.40;;;;;;;;;;5074102;28;20028;-66
2022/07/11 13:49:56;;;;;;;1.65;0.40;;;;;;;;;;5073867;28;20052;-67
2022/07/11 13:52:22;;;;;;;3.42;0.63;;;;;;;;;;5074130;28;20035;-66
2022/07/11 13:54:47;;;;;;;2.58;0.60;;;;;;;;;;5074112;28;20469;-66
2022/07/11 13:57:13;;;;;;;1.42;0.65;;;;;;;;;;5073909;28;20029;-66
2022/07/11 13:59:39;;;;;;;9.65;0.90;;;;;;;;;;5073481;28;20110;-66
2022/07/11 14:02:06;;;;;;;1.77;0.70;;;;;;;;;;5073794;28;20066;-66
2022/07/11 14:04:32;;;;;;;1.45;0.60;;;;;;;;;;5073913;28;20016;-67
2022/07/11 14:06:57;;;;;;;1.25;0.50;;;;;;;;;;5073667;28;20035;-67
2022/07/11 14:09:23;;;;;;;3.47;0.70;;;;;;;;;;5073644;28;20501;-66
2022/07/11 14:11:49;;;;;;;4.82;0.77;;;;;;;;;;5073705;28;20029;-67
2022/07/11 14:14:15;;;;;;;2.15;0.65;;;;;;;;;;5073521;28;20024;-66
2022/07/11 14:16:40;;;;;;;1.73;0.60;;;;;;;;;;5055686;28;20020;-66
2022/07/11 14:19:10;;;;;;;2.28;0.68;;;;;;;;;;5073356;28;20373;-67
2022/07/11 14:21:41;;;;;;;1.70;0.60;;;;;;;;;;5073355;28;20036;-67
2022/07/11 14:24:07;;;;;;;2.17;0.60;;;;;;;;;;5073238;28;20123;-67
2022/07/11 14:26:34;;;;;;;1.42;0.60;;;;;;;;;;5073316;28;20107;-67
2022/07/11 14:29:03;;;;;;;1.27;0.55;;;;;;;;;;5072972;28;20029;-67
2022/07/11 14:31:28;;;;;;;2.43;0.47;;;;;;;;;;5073233;28;20550;-68
2022/07/11 14:33:57;;;;;;;3.30;0.77;;;;;;;;;;5073157;28;20024;-68
2022/07/11 14:36:24;;;;;;;3.20;0.70;;;;;;;;;;5073222;28;20039;-67
2022/07/11 14:38:50;;;;;;;2.10;0.80;;;;;;;;;;5073040;28;20028;-68
2022/07/11 14:41:16;;;;;;;1.55;0.50;;;;;;;;;;5072896;28;20355;-64
2022/07/11 14:43:42;;;;;;;2.00;0.70;;;;;;;;;;5072825;28;20123;-65
2022/07/11 14:46:08;;;;;;;4.05;0.70;;;;;;;;;;5086644;28;20024;-65
2022/07/11 14:48:34;;;;;;;1.83;0.60;;;;;;;;;;5089387;28;20110;-65
2022/07/11 14:50:59;;;;;;;5.00;1.00;;;;;;;;;;5088525;28;20476;-65
2022/07/11 14:53:25;;;;;;;5.30;0.77;;;;;;;;;;5089450;28;20468;-65